Pagrindinis puslapis
METAR-TAF:

METAR-TAF

Oro uostai :

Yanbu, Saudo Arabija

platuma: 24-09N, ilguma: 038-04E, Aukštis: 8 m

Dabartinis oras

Ataskaita buvo paskelbta 58 minutes, ne 04:00 UTC
Vėjas 8 kt iš Rytų/Šiaurės Rytų
Temperatūra 23°C
Drėgmė 23%
Slėgis 1011 hPa
Matomumas 10 km arba daugiau
nėra debesų žemiau 1500 m ir nėra kamuolinių lietaus debesų

METAR: OEYN 210400Z 06008KT CAVOK 23/01 Q1011 NOSIG

Laikas: 07:58 (04:58 UTC)

Prognozė

Ataskaita buvo paskelbta 5 valandos ir 58 minutes, ne 23:00 UTC
Prognozė galioja nuo 21 metu 00 UTC su 22 metu 06 UTC
Vėjas 14 kt iš Rytų
Matomumas: 7000 m
Laikinai
nuo 21 metu 00 UTC su 21 metu 10 UTC
Matomumas: 4000 m
Dulkes pustymas
Tapsmas
nuo 21 metu 08 UTC su 21 metu 10 UTC
Vėjas 12 kt iš Vakarų

TAF: OEYN 202300Z 2100/2206 09014KT 7000 NSC TEMPO 2100/2110 4000 BLDU BECMG 2108/2110 26012KT

Orai ataskaitas ir orų prognozės (METAR, TAF).

turimą stotys yra geltonos ir raudonos taškus žemėlapyje.

Perkelti pele per norėdami pamatyti stoties vardą.

Tada spustelėkite, norėdami matyti oro stebėjimo ir prognozės.

Norėdami pakeisti žemėlapį: spustelėkite ant žalios mygtukų su juodo kryžiaus žemyn,; žalią mygtuką su brūkšneliu, jei norite nutolinti; arba žalių rodyklių gretimoms žemėlapius.


METAR-TAF: